sensor_id;sensor_type;location;lat;lon;timestamp;P1;durP1;ratioP1;P2;durP2;ratioP2
13048;SDS011;6591;51.446;5.404;2022-10-01T00:02:02;4.00;;;3.60;;
13048;SDS011;6591;51.446;5.404;2022-10-01T00:04:30;4.43;;;3.77;;
13048;SDS011;6591;51.446;5.404;2022-10-01T00:06:57;5.20;;;3.67;;
13048;SDS011;6591;51.446;5.404;2022-10-01T00:09:28;10.97;;;3.67;;
13048;SDS011;6591;51.446;5.404;2022-10-01T00:11:59;4.10;;;3.50;;
13048;SDS011;6591;51.446;5.404;2022-10-01T00:14:26;4.40;;;3.10;;
13048;SDS011;6591;51.446;5.404;2022-10-01T00:16:57;4.00;;;3.60;;
13048;SDS011;6591;51.446;5.404;2022-10-01T00:19:26;4.23;;;3.40;;
13048;SDS011;6591;51.446;5.404;2022-10-01T00:22:01;3.63;;;3.33;;
13048;SDS011;6591;51.446;5.404;2022-10-01T00:24:32;4.53;;;3.50;;
13048;SDS011;6591;51.446;5.404;2022-10-01T00:26:59;3.90;;;3.50;;
13048;SDS011;6591;51.446;5.404;2022-10-01T00:29:26;4.27;;;3.57;;
13048;SDS011;6591;51.446;5.404;2022-10-01T00:31:53;3.40;;;3.10;;
13048;SDS011;6591;51.446;5.404;2022-10-01T00:34:20;4.13;;;3.50;;
13048;SDS011;6591;51.446;5.404;2022-10-01T00:36:47;4.77;;;3.60;;
13048;SDS011;6591;51.446;5.404;2022-10-01T00:39:14;4.77;;;3.30;;
13048;SDS011;6591;51.446;5.404;2022-10-01T00:41:41;3.93;;;3.60;;
13048;SDS011;6591;51.446;5.404;2022-10-01T00:44:28;4.17;;;3.23;;
13048;SDS011;6591;51.446;5.404;2022-10-01T00:47:04;3.70;;;3.30;;
13048;SDS011;6591;51.446;5.404;2022-10-01T00:49:49;4.17;;;3.50;;
13048;SDS011;6591;51.446;5.404;2022-10-01T00:52:27;3.33;;;3.03;;
13048;SDS011;6591;51.446;5.404;2022-10-01T00:58:17;4.83;;;3.07;;
13048;SDS011;6591;51.446;5.404;2022-10-01T01:00:45;3.33;;;3.03;;
13048;SDS011;6591;51.446;5.404;2022-10-01T01:03:14;3.90;;;3.27;;
13048;SDS011;6591;51.446;5.404;2022-10-01T01:05:42;4.33;;;2.97;;
13048;SDS011;6591;51.446;5.404;2022-10-01T01:08:11;3.63;;;3.30;;
13048;SDS011;6591;51.446;5.404;2022-10-01T01:13:43;3.07;;;2.70;;
13048;SDS011;6591;51.446;5.404;2022-10-01T01:16:24;3.20;;;2.87;;
13048;SDS011;6591;51.446;5.404;2022-10-01T01:19:02;3.07;;;2.73;;
13048;SDS011;6591;51.446;5.404;2022-10-01T01:21:39;4.77;;;3.10;;
13048;SDS011;6591;51.446;5.404;2022-10-01T01:27:17;3.27;;;2.97;;
13048;SDS011;6591;51.446;5.404;2022-10-01T01:30:11;3.00;;;2.40;;
13048;SDS011;6591;51.446;5.404;2022-10-01T01:32:56;2.53;;;2.33;;
13048;SDS011;6591;51.446;5.404;2022-10-01T01:35:45;2.87;;;2.57;;
13048;SDS011;6591;51.446;5.404;2022-10-01T01:38:28;3.17;;;2.40;;
13048;SDS011;6591;51.446;5.404;2022-10-01T01:41:03;2.47;;;2.27;;
13048;SDS011;6591;51.446;5.404;2022-10-01T01:43:34;2.60;;;2.40;;
13048;SDS011;6591;51.446;5.404;2022-10-01T01:46:09;5.57;;;2.53;;
13048;SDS011;6591;51.446;5.404;2022-10-01T01:48:39;2.40;;;2.20;;
13048;SDS011;6591;51.446;5.404;2022-10-01T01:51:23;2.80;;;2.20;;
13048;SDS011;6591;51.446;5.404;2022-10-01T01:54:04;3.93;;;2.20;;
13048;SDS011;6591;51.446;5.404;2022-10-01T01:56:32;3.23;;;2.20;;
13048;SDS011;6591;51.446;5.404;2022-10-01T01:58:59;2.57;;;2.20;;
13048;SDS011;6591;51.446;5.404;2022-10-01T02:01:36;2.90;;;2.17;;
13048;SDS011;6591;51.446;5.404;2022-10-01T02:13:17;1.90;;;1.60;;
13048;SDS011;6591;51.446;5.404;2022-10-01T02:15:59;1.70;;;1.60;;
13048;SDS011;6591;51.446;5.404;2022-10-01T02:22:15;2.70;;;1.70;;
13048;SDS011;6591;51.446;5.404;2022-10-01T02:24:53;3.73;;;1.40;;
13048;SDS011;6591;51.446;5.404;2022-10-01T02:27:43;1.50;;;1.40;;
13048;SDS011;6591;51.446;5.404;2022-10-01T02:30:21;1.50;;;1.40;;
13048;SDS011;6591;51.446;5.404;2022-10-01T02:32:48;1.50;;;1.40;;
13048;SDS011;6591;51.446;5.404;2022-10-01T02:35:17;1.73;;;1.60;;
13048;SDS011;6591;51.446;5.404;2022-10-01T02:37:48;1.67;;;1.57;;
13048;SDS011;6591;51.446;5.404;2022-10-01T02:40:20;1.60;;;1.50;;
13048;SDS011;6591;51.446;5.404;2022-10-01T02:42:55;1.73;;;1.53;;
13048;SDS011;6591;51.446;5.404;2022-10-01T02:45:29;2.30;;;1.63;;
13048;SDS011;6591;51.446;5.404;2022-10-01T02:48:02;2.07;;;1.40;;
13048;SDS011;6591;51.446;5.404;2022-10-01T02:53:26;1.47;;;1.37;;
13048;SDS011;6591;51.446;5.404;2022-10-01T02:56:03;1.63;;;1.53;;
13048;SDS011;6591;51.446;5.404;2022-10-01T02:58:33;1.30;;;1.20;;
13048;SDS011;6591;51.446;5.404;2022-10-01T03:01:01;1.30;;;1.20;;
13048;SDS011;6591;51.446;5.404;2022-10-01T03:03:28;1.50;;;1.20;;
13048;SDS011;6591;51.446;5.404;2022-10-01T03:05:57;1.47;;;1.37;;
13048;SDS011;6591;51.446;5.404;2022-10-01T03:08:24;1.47;;;1.37;;
13048;SDS011;6591;51.446;5.404;2022-10-01T03:10:51;1.40;;;1.30;;
13048;SDS011;6591;51.446;5.404;2022-10-01T03:13:18;1.07;;;1.00;;
13048;SDS011;6591;51.446;5.404;2022-10-01T03:15:47;1.20;;;1.10;;
13048;SDS011;6591;51.446;5.404;2022-10-01T03:18:14;1.30;;;1.13;;
13048;SDS011;6591;51.446;5.404;2022-10-01T03:20:41;1.53;;;1.10;;
13048;SDS011;6591;51.446;5.404;2022-10-01T03:23:08;1.57;;;1.30;;
13048;SDS011;6591;51.446;5.404;2022-10-01T03:25:34;1.20;;;0.90;;
13048;SDS011;6591;51.446;5.404;2022-10-01T03:28:01;1.30;;;1.20;;
13048;SDS011;6591;51.446;5.404;2022-10-01T03:30:28;1.13;;;1.03;;
13048;SDS011;6591;51.446;5.404;2022-10-01T03:32:56;1.00;;;1.00;;
13048;SDS011;6591;51.446;5.404;2022-10-01T03:35:23;1.17;;;1.07;;
13048;SDS011;6591;51.446;5.404;2022-10-01T03:37:50;0.80;;;0.80;;
13048;SDS011;6591;51.446;5.404;2022-10-01T03:40:16;0.93;;;0.70;;
13048;SDS011;6591;51.446;5.404;2022-10-01T03:42:46;0.80;;;0.80;;
13048;SDS011;6591;51.446;5.404;2022-10-01T03:45:13;0.80;;;0.80;;
13048;SDS011;6591;51.446;5.404;2022-10-01T03:47:40;0.60;;;0.60;;
13048;SDS011;6591;51.446;5.404;2022-10-01T03:50:08;0.57;;;0.57;;
13048;SDS011;6591;51.446;5.404;2022-10-01T03:52:35;0.80;;;0.73;;
13048;SDS011;6591;51.446;5.404;2022-10-01T03:55:02;0.80;;;0.70;;
13048;SDS011;6591;51.446;5.404;2022-10-01T03:57:31;0.57;;;0.57;;
13048;SDS011;6591;51.446;5.404;2022-10-01T03:59:57;0.77;;;0.50;;
13048;SDS011;6591;51.446;5.404;2022-10-01T04:02:24;0.60;;;0.60;;
13048;SDS011;6591;51.446;5.404;2022-10-01T04:04:59;0.47;;;0.47;;
13048;SDS011;6591;51.446;5.404;2022-10-01T04:07:29;2.00;;;0.50;;
13048;SDS011;6591;51.446;5.404;2022-10-01T04:09:58;0.50;;;0.50;;
13048;SDS011;6591;51.446;5.404;2022-10-01T04:12:25;0.40;;;0.40;;
13048;SDS011;6591;51.446;5.404;2022-10-01T04:14:53;0.60;;;0.60;;
13048;SDS011;6591;51.446;5.404;2022-10-01T04:17:20;0.90;;;0.70;;
13048;SDS011;6591;51.446;5.404;2022-10-01T04:19:47;0.50;;;0.50;;
13048;SDS011;6591;51.446;5.404;2022-10-01T04:22:14;0.60;;;0.50;;
13048;SDS011;6591;51.446;5.404;2022-10-01T04:24:41;0.60;;;0.60;;
13048;SDS011;6591;51.446;5.404;2022-10-01T04:27:08;0.40;;;0.40;;
13048;SDS011;6591;51.446;5.404;2022-10-01T04:29:35;0.50;;;0.50;;
13048;SDS011;6591;51.446;5.404;2022-10-01T04:32:05;0.53;;;0.53;;
13048;SDS011;6591;51.446;5.404;2022-10-01T04:34:32;0.57;;;0.57;;
13048;SDS011;6591;51.446;5.404;2022-10-01T04:37:20;0.50;;;0.50;;
13048;SDS011;6591;51.446;5.404;2022-10-01T04:39:49;0.80;;;0.70;;
13048;SDS011;6591;51.446;5.404;2022-10-01T04:42:16;1.03;;;0.50;;
13048;SDS011;6591;51.446;5.404;2022-10-01T04:44:43;0.50;;;0.50;;
13048;SDS011;6591;51.446;5.404;2022-10-01T04:47:10;0.40;;;0.40;;
13048;SDS011;6591;51.446;5.404;2022-10-01T04:49:37;0.77;;;0.60;;
13048;SDS011;6591;51.446;5.404;2022-10-01T04:52:04;0.67;;;0.67;;
13048;SDS011;6591;51.446;5.404;2022-10-01T04:54:31;0.50;;;0.50;;
13048;SDS011;6591;51.446;5.404;2022-10-01T04:56:59;0.60;;;0.60;;
13048;SDS011;6591;51.446;5.404;2022-10-01T04:59:26;0.57;;;0.57;;
13048;SDS011;6591;51.446;5.404;2022-10-01T05:01:52;0.83;;;0.83;;
13048;SDS011;6591;51.446;5.404;2022-10-01T05:04:20;0.70;;;0.70;;
13048;SDS011;6591;51.446;5.404;2022-10-01T05:06:47;0.70;;;0.70;;
13048;SDS011;6591;51.446;5.404;2022-10-01T05:09:14;0.80;;;0.80;;
13048;SDS011;6591;51.446;5.404;2022-10-01T05:11:41;0.70;;;0.70;;
13048;SDS011;6591;51.446;5.404;2022-10-01T05:14:09;0.70;;;0.70;;
13048;SDS011;6591;51.446;5.404;2022-10-01T05:16:37;1.70;;;0.80;;
13048;SDS011;6591;51.446;5.404;2022-10-01T05:19:04;0.80;;;0.80;;
13048;SDS011;6591;51.446;5.404;2022-10-01T05:21:31;1.00;;;1.00;;
13048;SDS011;6591;51.446;5.404;2022-10-01T05:23:59;1.63;;;0.83;;
13048;SDS011;6591;51.446;5.404;2022-10-01T05:26:26;1.07;;;0.97;;
13048;SDS011;6591;51.446;5.404;2022-10-01T05:28:57;1.10;;;1.00;;
13048;SDS011;6591;51.446;5.404;2022-10-01T05:31:25;1.70;;;0.80;;
13048;SDS011;6591;51.446;5.404;2022-10-01T05:33:52;0.60;;;0.60;;
13048;SDS011;6591;51.446;5.404;2022-10-01T05:36:22;1.00;;;0.87;;
13048;SDS011;6591;51.446;5.404;2022-10-01T05:38:49;1.20;;;1.00;;
13048;SDS011;6591;51.446;5.404;2022-10-01T05:41:17;1.63;;;1.40;;
13048;SDS011;6591;51.446;5.404;2022-10-01T05:43:46;1.40;;;1.30;;
13048;SDS011;6591;51.446;5.404;2022-10-01T05:46:14;1.60;;;1.10;;
13048;SDS011;6591;51.446;5.404;2022-10-01T05:48:41;0.97;;;0.90;;
13048;SDS011;6591;51.446;5.404;2022-10-01T05:51:08;2.20;;;1.17;;
13048;SDS011;6591;51.446;5.404;2022-10-01T05:53:36;3.50;;;1.30;;
13048;SDS011;6591;51.446;5.404;2022-10-01T05:56:04;1.30;;;1.20;;
13048;SDS011;6591;51.446;5.404;2022-10-01T05:58:32;1.70;;;1.40;;
13048;SDS011;6591;51.446;5.404;2022-10-01T06:01:00;1.50;;;1.40;;
13048;SDS011;6591;51.446;5.404;2022-10-01T06:03:29;1.53;;;1.43;;
13048;SDS011;6591;51.446;5.404;2022-10-01T06:05:57;1.53;;;1.30;;
13048;SDS011;6591;51.446;5.404;2022-10-01T06:08:24;1.30;;;1.20;;
13048;SDS011;6591;51.446;5.404;2022-10-01T06:10:57;1.50;;;1.40;;
13048;SDS011;6591;51.446;5.404;2022-10-01T06:13:26;1.50;;;1.40;;
13048;SDS011;6591;51.446;5.404;2022-10-01T06:15:57;1.30;;;1.20;;
13048;SDS011;6591;51.446;5.404;2022-10-01T06:18:24;1.40;;;1.20;;
13048;SDS011;6591;51.446;5.404;2022-10-01T06:20:52;1.50;;;1.40;;
13048;SDS011;6591;51.446;5.404;2022-10-01T06:23:23;1.57;;;1.33;;
13048;SDS011;6591;51.446;5.404;2022-10-01T06:25:49;1.50;;;1.40;;
13048;SDS011;6591;51.446;5.404;2022-10-01T06:28:17;3.03;;;1.60;;
13048;SDS011;6591;51.446;5.404;2022-10-01T06:30:44;2.60;;;1.70;;
13048;SDS011;6591;51.446;5.404;2022-10-01T06:33:12;2.30;;;1.50;;
13048;SDS011;6591;51.446;5.404;2022-10-01T06:35:49;1.97;;;1.47;;
13048;SDS011;6591;51.446;5.404;2022-10-01T06:38:18;1.97;;;1.70;;
13048;SDS011;6591;51.446;5.404;2022-10-01T06:40:53;1.73;;;1.63;;
13048;SDS011;6591;51.446;5.404;2022-10-01T06:43:23;2.20;;;1.70;;
13048;SDS011;6591;51.446;5.404;2022-10-01T06:45:52;2.30;;;2.00;;
13048;SDS011;6591;51.446;5.404;2022-10-01T06:48:20;1.80;;;1.70;;
13048;SDS011;6591;51.446;5.404;2022-10-01T06:50:48;1.90;;;1.60;;
13048;SDS011;6591;51.446;5.404;2022-10-01T06:53:17;3.97;;;2.10;;
13048;SDS011;6591;51.446;5.404;2022-10-01T06:55:44;2.53;;;1.80;;
13048;SDS011;6591;51.446;5.404;2022-10-01T06:58:12;3.27;;;2.03;;
13048;SDS011;6591;51.446;5.404;2022-10-01T07:00:42;2.33;;;2.10;;
13048;SDS011;6591;51.446;5.404;2022-10-01T07:03:12;2.97;;;2.57;;
13048;SDS011;6591;51.446;5.404;2022-10-01T07:05:42;2.63;;;2.20;;
13048;SDS011;6591;51.446;5.404;2022-10-01T07:08:10;2.17;;;2.07;;
13048;SDS011;6591;51.446;5.404;2022-10-01T07:10:38;2.60;;;2.33;;
13048;SDS011;6591;51.446;5.404;2022-10-01T07:13:07;2.50;;;2.30;;
13048;SDS011;6591;51.446;5.404;2022-10-01T07:15:39;2.73;;;2.40;;
13048;SDS011;6591;51.446;5.404;2022-10-01T07:18:07;2.70;;;2.50;;
13048;SDS011;6591;51.446;5.404;2022-10-01T07:20:36;3.00;;;2.70;;
13048;SDS011;6591;51.446;5.404;2022-10-01T07:23:14;4.67;;;3.00;;
13048;SDS011;6591;51.446;5.404;2022-10-01T07:25:42;3.23;;;2.93;;
13048;SDS011;6591;51.446;5.404;2022-10-01T07:28:11;4.40;;;3.20;;
13048;SDS011;6591;51.446;5.404;2022-10-01T07:30:45;4.57;;;2.90;;
13048;SDS011;6591;51.446;5.404;2022-10-01T07:33:30;3.37;;;2.87;;
13048;SDS011;6591;51.446;5.404;2022-10-01T07:36:01;2.67;;;2.47;;
13048;SDS011;6591;51.446;5.404;2022-10-01T07:38:31;3.97;;;3.13;;
13048;SDS011;6591;51.446;5.404;2022-10-01T07:41:01;3.30;;;3.00;;
13048;SDS011;6591;51.446;5.404;2022-10-01T07:43:30;5.00;;;3.30;;
13048;SDS011;6591;51.446;5.404;2022-10-01T07:45:59;4.77;;;3.20;;
13048;SDS011;6591;51.446;5.404;2022-10-01T07:48:28;4.13;;;3.30;;
13048;SDS011;6591;51.446;5.404;2022-10-01T07:50:56;3.40;;;3.10;;
13048;SDS011;6591;51.446;5.404;2022-10-01T07:53:23;4.60;;;3.80;;
13048;SDS011;6591;51.446;5.404;2022-10-01T07:55:51;3.37;;;3.07;;
13048;SDS011;6591;51.446;5.404;2022-10-01T07:58:18;5.97;;;3.90;;
13048;SDS011;6591;51.446;5.404;2022-10-01T08:00:48;4.88;;;4.20;;
13048;SDS011;6591;51.446;5.404;2022-10-01T08:03:21;4.43;;;3.53;;
13048;SDS011;6591;51.446;5.404;2022-10-01T08:05:48;4.47;;;3.93;;
13048;SDS011;6591;51.446;5.404;2022-10-01T08:08:15;4.17;;;3.77;;
13048;SDS011;6591;51.446;5.404;2022-10-01T08:10:43;4.13;;;3.73;;
13048;SDS011;6591;51.446;5.404;2022-10-01T08:13:12;4.03;;;3.70;;
13048;SDS011;6591;51.446;5.404;2022-10-01T08:15:42;3.73;;;3.43;;
13048;SDS011;6591;51.446;5.404;2022-10-01T08:18:23;3.90;;;3.50;;
13048;SDS011;6591;51.446;5.404;2022-10-01T08:20:50;5.65;;;3.85;;
13048;SDS011;6591;51.446;5.404;2022-10-01T08:23:17;3.33;;;3.03;;
13048;SDS011;6591;51.446;5.404;2022-10-01T08:25:44;4.47;;;3.23;;
13048;SDS011;6591;51.446;5.404;2022-10-01T08:28:13;4.03;;;3.00;;
13048;SDS011;6591;51.446;5.404;2022-10-01T08:30:41;3.00;;;2.70;;
13048;SDS011;6591;51.446;5.404;2022-10-01T08:33:11;4.70;;;3.15;;
13048;SDS011;6591;51.446;5.404;2022-10-01T08:35:42;2.60;;;2.40;;
13048;SDS011;6591;51.446;5.404;2022-10-01T08:38:10;2.20;;;1.90;;
13048;SDS011;6591;51.446;5.404;2022-10-01T08:40:48;3.00;;;1.90;;
13048;SDS011;6591;51.446;5.404;2022-10-01T08:46:00;2.97;;;1.90;;
13048;SDS011;6591;51.446;5.404;2022-10-01T08:52:00;3.10;;;2.08;;
13048;SDS011;6591;51.446;5.404;2022-10-01T08:54:44;4.60;;;2.40;;
13048;SDS011;6591;51.446;5.404;2022-10-01T08:57:22;3.03;;;1.95;;
13048;SDS011;6591;51.446;5.404;2022-10-01T09:00:09;2.90;;;1.80;;
13048;SDS011;6591;51.446;5.404;2022-10-01T09:02:43;3.80;;;2.30;;
13048;SDS011;6591;51.446;5.404;2022-10-01T09:05:21;4.22;;;2.47;;
13048;SDS011;6591;51.446;5.404;2022-10-01T09:08:03;3.40;;;2.20;;
13048;SDS011;6591;51.446;5.404;2022-10-01T09:11:15;4.05;;;2.60;;
13048;SDS011;6591;51.446;5.404;2022-10-01T09:27:56;7.50;;;3.40;;
13048;SDS011;6591;51.446;5.404;2022-10-01T09:30:48;5.50;;;3.03;;
13048;SDS011;6591;51.446;5.404;2022-10-01T09:33:23;5.60;;;3.25;;
13048;SDS011;6591;51.446;5.404;2022-10-01T09:36:17;5.78;;;2.50;;
13048;SDS011;6591;51.446;5.404;2022-10-01T09:41:57;5.57;;;2.20;;
13048;SDS011;6591;51.446;5.404;2022-10-01T09:44:26;5.57;;;2.20;;
13048;SDS011;6591;51.446;5.404;2022-10-01T09:46:56;5.50;;;2.30;;
13048;SDS011;6591;51.446;5.404;2022-10-01T09:49:33;7.43;;;2.50;;
13048;SDS011;6591;51.446;5.404;2022-10-01T09:52:13;6.93;;;2.08;;
13048;SDS011;6591;51.446;5.404;2022-10-01T09:54:56;7.95;;;2.60;;
13048;SDS011;6591;51.446;5.404;2022-10-01T10:00:27;7.85;;;2.30;;
13048;SDS011;6591;51.446;5.404;2022-10-01T10:02:55;8.20;;;2.13;;
13048;SDS011;6591;51.446;5.404;2022-10-01T10:05:23;8.60;;;2.20;;
13048;SDS011;6591;51.446;5.404;2022-10-01T10:10:29;9.05;;;2.55;;
13048;SDS011;6591;51.446;5.404;2022-10-01T10:13:20;7.97;;;2.30;;
13048;SDS011;6591;51.446;5.404;2022-10-01T10:16:04;7.88;;;1.70;;
13048;SDS011;6591;51.446;5.404;2022-10-01T10:18:47;8.98;;;2.10;;
13048;SDS011;6591;51.446;5.404;2022-10-01T10:21:19;6.63;;;1.90;;
13048;SDS011;6591;51.446;5.404;2022-10-01T10:23:58;3.92;;;1.73;;
13048;SDS011;6591;51.446;5.404;2022-10-01T10:26:35;7.60;;;1.83;;
13048;SDS011;6591;51.446;5.404;2022-10-01T10:29:11;5.82;;;1.90;;
13048;SDS011;6591;51.446;5.404;2022-10-01T10:31:56;6.95;;;2.15;;
13048;SDS011;6591;51.446;5.404;2022-10-01T10:34:30;5.78;;;2.00;;
13048;SDS011;6591;51.446;5.404;2022-10-01T10:37:04;7.15;;;1.80;;
13048;SDS011;6591;51.446;5.404;2022-10-01T10:39:42;7.43;;;2.10;;
13048;SDS011;6591;51.446;5.404;2022-10-01T10:42:19;6.88;;;2.00;;
13048;SDS011;6591;51.446;5.404;2022-10-01T10:45:03;5.60;;;1.90;;
13048;SDS011;6591;51.446;5.404;2022-10-01T10:47:46;7.18;;;2.58;;
13048;SDS011;6591;51.446;5.404;2022-10-01T10:50:29;12.30;;;2.20;;
13048;SDS011;6591;51.446;5.404;2022-10-01T10:53:19;6.88;;;2.30;;
13048;SDS011;6591;51.446;5.404;2022-10-01T10:55:59;5.07;;;1.70;;
13048;SDS011;6591;51.446;5.404;2022-10-01T10:58:34;10.00;;;2.75;;
13048;SDS011;6591;51.446;5.404;2022-10-01T11:01:06;7.45;;;2.35;;
13048;SDS011;6591;51.446;5.404;2022-10-01T11:03:43;9.73;;;2.10;;
13048;SDS011;6591;51.446;5.404;2022-10-01T11:06:15;10.07;;;2.40;;
13048;SDS011;6591;51.446;5.404;2022-10-01T11:08:44;6.43;;;2.13;;
13048;SDS011;6591;51.446;5.404;2022-10-01T11:11:38;9.05;;;2.10;;
13048;SDS011;6591;51.446;5.404;2022-10-01T11:14:17;5.60;;;2.03;;
13048;SDS011;6591;51.446;5.404;2022-10-01T11:17:13;6.00;;;1.75;;
13048;SDS011;6591;51.446;5.404;2022-10-01T11:20:21;9.98;;;2.47;;
13048;SDS011;6591;51.446;5.404;2022-10-01T11:23:19;7.13;;;1.88;;
13048;SDS011;6591;51.446;5.404;2022-10-01T11:35:15;8.57;;;2.00;;
13048;SDS011;6591;51.446;5.404;2022-10-01T11:38:18;5.38;;;1.85;;
13048;SDS011;6591;51.446;5.404;2022-10-01T11:43:50;12.45;;;2.60;;
13048;SDS011;6591;51.446;5.404;2022-10-01T11:55:38;8.35;;;2.40;;
13048;SDS011;6591;51.446;5.404;2022-10-01T12:06:21;7.43;;;2.38;;
13048;SDS011;6591;51.446;5.404;2022-10-01T12:09:22;8.40;;;2.30;;
13048;SDS011;6591;51.446;5.404;2022-10-01T12:12:02;9.10;;;2.30;;
13048;SDS011;6591;51.446;5.404;2022-10-01T12:14:48;6.10;;;1.92;;
13048;SDS011;6591;51.446;5.404;2022-10-01T12:17:43;10.27;;;2.20;;
13048;SDS011;6591;51.446;5.404;2022-10-01T12:20:34;8.93;;;2.63;;
13048;SDS011;6591;51.446;5.404;2022-10-01T12:23:14;7.78;;;2.35;;
13048;SDS011;6591;51.446;5.404;2022-10-01T12:28:38;7.65;;;2.13;;
13048;SDS011;6591;51.446;5.404;2022-10-01T12:37:38;10.25;;;2.10;;
13048;SDS011;6591;51.446;5.404;2022-10-01T12:49:16;7.15;;;2.08;;
13048;SDS011;6591;51.446;5.404;2022-10-01T12:52:03;9.65;;;2.58;;
13048;SDS011;6591;51.446;5.404;2022-10-01T13:15:34;6.68;;;2.10;;
13048;SDS011;6591;51.446;5.404;2022-10-01T13:24:38;5.82;;;1.88;;
13048;SDS011;6591;51.446;5.404;2022-10-01T13:27:41;5.70;;;2.10;;
13048;SDS011;6591;51.446;5.404;2022-10-01T13:30:57;6.70;;;1.90;;
13048;SDS011;6591;51.446;5.404;2022-10-01T13:33:31;6.43;;;1.80;;
13048;SDS011;6591;51.446;5.404;2022-10-01T13:36:02;7.75;;;2.60;;
13048;SDS011;6591;51.446;5.404;2022-10-01T13:38:49;5.65;;;2.05;;
13048;SDS011;6591;51.446;5.404;2022-10-01T13:44:09;6.00;;;2.00;;
13048;SDS011;6591;51.446;5.404;2022-10-01T13:46:54;4.90;;;1.67;;
13048;SDS011;6591;51.446;5.404;2022-10-01T13:49:30;4.97;;;1.63;;
13048;SDS011;6591;51.446;5.404;2022-10-01T13:52:02;5.70;;;1.90;;
13048;SDS011;6591;51.446;5.404;2022-10-01T13:57:24;4.68;;;1.67;;
13048;SDS011;6591;51.446;5.404;2022-10-01T14:02:43;5.90;;;1.50;;
13048;SDS011;6591;51.446;5.404;2022-10-01T14:05:42;5.25;;;1.50;;
13048;SDS011;6591;51.446;5.404;2022-10-01T14:08:23;6.60;;;1.73;;
13048;SDS011;6591;51.446;5.404;2022-10-01T14:11:04;3.42;;;1.60;;
13048;SDS011;6591;51.446;5.404;2022-10-01T14:13:57;3.75;;;1.42;;
13048;SDS011;6591;51.446;5.404;2022-10-01T14:16:55;5.55;;;1.90;;
13048;SDS011;6591;51.446;5.404;2022-10-01T14:19:24;4.85;;;1.73;;
13048;SDS011;6591;51.446;5.404;2022-10-01T14:24:37;3.90;;;1.42;;
13048;SDS011;6591;51.446;5.404;2022-10-01T14:28:15;3.85;;;1.50;;
13048;SDS011;6591;51.446;5.404;2022-10-01T14:31:07;7.25;;;2.30;;
13048;SDS011;6591;51.446;5.404;2022-10-01T14:36:50;5.43;;;1.63;;
13048;SDS011;6591;51.446;5.404;2022-10-01T14:39:24;6.13;;;2.10;;
13048;SDS011;6591;51.446;5.404;2022-10-01T14:41:54;6.13;;;1.77;;
13048;SDS011;6591;51.446;5.404;2022-10-01T14:47:10;5.82;;;1.88;;
13048;SDS011;6591;51.446;5.404;2022-10-01T14:49:39;5.97;;;2.00;;
13048;SDS011;6591;51.446;5.404;2022-10-01T14:52:12;5.43;;;1.80;;
13048;SDS011;6591;51.446;5.404;2022-10-01T14:54:57;6.97;;;2.08;;
13048;SDS011;6591;51.446;5.404;2022-10-01T14:57:33;6.78;;;2.00;;
13048;SDS011;6591;51.446;5.404;2022-10-01T15:00:07;4.35;;;1.83;;
13048;SDS011;6591;51.446;5.404;2022-10-01T15:05:44;9.57;;;2.15;;
13048;SDS011;6591;51.446;5.404;2022-10-01T15:08:21;5.78;;;1.70;;
13048;SDS011;6591;51.446;5.404;2022-10-01T15:11:03;5.10;;;1.55;;
13048;SDS011;6591;51.446;5.404;2022-10-01T15:13:36;4.57;;;1.90;;
13048;SDS011;6591;51.446;5.404;2022-10-01T15:16:11;6.22;;;2.03;;
13048;SDS011;6591;51.446;5.404;2022-10-01T15:18:46;7.32;;;2.30;;
13048;SDS011;6591;51.446;5.404;2022-10-01T15:21:29;6.47;;;1.90;;
13048;SDS011;6591;51.446;5.404;2022-10-01T15:24:35;5.32;;;1.48;;
13048;SDS011;6591;51.446;5.404;2022-10-01T15:27:12;5.38;;;1.70;;
13048;SDS011;6591;51.446;5.404;2022-10-01T15:29:43;4.55;;;1.80;;
13048;SDS011;6591;51.446;5.404;2022-10-01T15:32:22;5.93;;;1.95;;
13048;SDS011;6591;51.446;5.404;2022-10-01T15:34:55;9.10;;;2.40;;
13048;SDS011;6591;51.446;5.404;2022-10-01T15:37:27;5.13;;;1.50;;
13048;SDS011;6591;51.446;5.404;2022-10-01T15:40:03;4.75;;;1.75;;
13048;SDS011;6591;51.446;5.404;2022-10-01T15:42:37;3.90;;;1.95;;
13048;SDS011;6591;51.446;5.404;2022-10-01T15:47:52;3.88;;;1.83;;
13048;SDS011;6591;51.446;5.404;2022-10-01T15:50:41;6.93;;;2.40;;
13048;SDS011;6591;51.446;5.404;2022-10-01T15:53:15;8.13;;;2.30;;
13048;SDS011;6591;51.446;5.404;2022-10-01T15:55:48;6.82;;;2.35;;
13048;SDS011;6591;51.446;5.404;2022-10-01T15:58:19;6.85;;;2.05;;
13048;SDS011;6591;51.446;5.404;2022-10-01T16:06:03;8.27;;;2.10;;
13048;SDS011;6591;51.446;5.404;2022-10-01T16:08:54;6.32;;;2.15;;
13048;SDS011;6591;51.446;5.404;2022-10-01T16:12:01;6.47;;;2.13;;
13048;SDS011;6591;51.446;5.404;2022-10-01T16:14:54;7.15;;;2.20;;
13048;SDS011;6591;51.446;5.404;2022-10-01T16:17:32;5.25;;;1.95;;
13048;SDS011;6591;51.446;5.404;2022-10-01T16:22:39;4.57;;;1.88;;
13048;SDS011;6591;51.446;5.404;2022-10-01T16:27:44;4.13;;;1.90;;
13048;SDS011;6591;51.446;5.404;2022-10-01T16:30:21;6.47;;;2.00;;
13048;SDS011;6591;51.446;5.404;2022-10-01T16:32:52;9.88;;;2.15;;
13048;SDS011;6591;51.446;5.404;2022-10-01T16:35:26;6.03;;;2.08;;
13048;SDS011;6591;51.446;5.404;2022-10-01T16:37:58;5.60;;;1.65;;
13048;SDS011;6591;51.446;5.404;2022-10-01T16:40:26;8.25;;;1.95;;
13048;SDS011;6591;51.446;5.404;2022-10-01T16:42:58;5.60;;;1.80;;
13048;SDS011;6591;51.446;5.404;2022-10-01T16:45:26;4.97;;;1.85;;
13048;SDS011;6591;51.446;5.404;2022-10-01T16:48:07;6.78;;;1.92;;
13048;SDS011;6591;51.446;5.404;2022-10-01T16:50:41;6.38;;;2.03;;
13048;SDS011;6591;51.446;5.404;2022-10-01T16:53:12;5.97;;;2.03;;
13048;SDS011;6591;51.446;5.404;2022-10-01T16:55:43;4.55;;;1.75;;
13048;SDS011;6591;51.446;5.404;2022-10-01T16:58:11;7.82;;;1.88;;
13048;SDS011;6591;51.446;5.404;2022-10-01T17:00:38;6.40;;;1.85;;
13048;SDS011;6591;51.446;5.404;2022-10-01T17:03:08;6.20;;;1.90;;
13048;SDS011;6591;51.446;5.404;2022-10-01T17:05:41;8.18;;;2.00;;
13048;SDS011;6591;51.446;5.404;2022-10-01T17:08:09;3.77;;;1.67;;
13048;SDS011;6591;51.446;5.404;2022-10-01T17:10:38;5.90;;;2.03;;
13048;SDS011;6591;51.446;5.404;2022-10-01T17:13:12;6.75;;;1.38;;
13048;SDS011;6591;51.446;5.404;2022-10-01T17:15:41;5.60;;;1.80;;
13048;SDS011;6591;51.446;5.404;2022-10-01T17:18:08;8.00;;;1.83;;
13048;SDS011;6591;51.446;5.404;2022-10-01T17:20:36;6.07;;;1.95;;
13048;SDS011;6591;51.446;5.404;2022-10-01T17:23:06;4.83;;;1.70;;
13048;SDS011;6591;51.446;5.404;2022-10-01T17:25:35;6.30;;;2.10;;
13048;SDS011;6591;51.446;5.404;2022-10-01T17:28:05;5.30;;;2.00;;
13048;SDS011;6591;51.446;5.404;2022-10-01T17:30:43;9.70;;;2.27;;
13048;SDS011;6591;51.446;5.404;2022-10-01T17:33:13;7.87;;;2.23;;
13048;SDS011;6591;51.446;5.404;2022-10-01T17:35:45;4.33;;;1.80;;
13048;SDS011;6591;51.446;5.404;2022-10-01T17:38:17;9.03;;;2.30;;
13048;SDS011;6591;51.446;5.404;2022-10-01T17:40:44;7.17;;;1.60;;
13048;SDS011;6591;51.446;5.404;2022-10-01T17:43:13;5.47;;;2.10;;
13048;SDS011;6591;51.446;5.404;2022-10-01T17:45:43;4.47;;;1.90;;
13048;SDS011;6591;51.446;5.404;2022-10-01T17:48:20;5.53;;;2.10;;
13048;SDS011;6591;51.446;5.404;2022-10-01T17:50:47;5.43;;;1.77;;
13048;SDS011;6591;51.446;5.404;2022-10-01T17:53:23;5.17;;;1.80;;
13048;SDS011;6591;51.446;5.404;2022-10-01T17:55:56;7.47;;;2.37;;
13048;SDS011;6591;51.446;5.404;2022-10-01T17:58:23;5.97;;;2.47;;
13048;SDS011;6591;51.446;5.404;2022-10-01T18:00:50;5.50;;;1.97;;
13048;SDS011;6591;51.446;5.404;2022-10-01T18:03:17;7.10;;;2.17;;
13048;SDS011;6591;51.446;5.404;2022-10-01T18:05:45;5.40;;;2.00;;
13048;SDS011;6591;51.446;5.404;2022-10-01T18:08:11;4.27;;;1.70;;
13048;SDS011;6591;51.446;5.404;2022-10-01T18:10:38;6.80;;;2.20;;
13048;SDS011;6591;51.446;5.404;2022-10-01T18:13:05;7.20;;;2.17;;
13048;SDS011;6591;51.446;5.404;2022-10-01T18:15:32;7.20;;;2.33;;
13048;SDS011;6591;51.446;5.404;2022-10-01T18:17:59;5.60;;;2.03;;
13048;SDS011;6591;51.446;5.404;2022-10-01T18:20:46;6.97;;;1.77;;
13048;SDS011;6591;51.446;5.404;2022-10-01T18:23:13;6.43;;;1.93;;